DAL220 KMSP-KDEN
Flight info
| Callsign | DAL220 |
|---|---|
| Flight time | N/A |
| Altitude | 40000 |
| Route | SCHEP1 RXANN TEYOU LLUKY PORDR AALLE4 |
| Aircraft | A359/H-SDE2E3GHIJ3J4J5LM1ORWXY/LB1D1 |
Departure
| Time | 2026-05-07 03:44 |
|---|---|
| Airport | Minneapolis–Saint Paul International Airport / Wold–Chamberlain Field (KMSP) |
Arrival
| Time | N/A |
|---|---|
| Airport | Denver International Airport (KDEN) |
| Time | Latitude | Longitude | Altitude | Speed | Heading |
|---|---|---|---|---|---|
| 2026-05-07 03:24 | 44.88119 | -93.21222 | 839 ft | 0 kts | 23° |
| 2026-05-07 03:36 | 44.88102 | -93.21232 | 835 ft | 4 kts | 25° |
| 2026-05-07 03:36 | 44.88078 | -93.21248 | 839 ft | 4 kts | 18° |
| 2026-05-07 03:36 | 44.88052 | -93.21260 | 836 ft | 4 kts | 26° |
| 2026-05-07 03:37 | 44.88031 | -93.21280 | 828 ft | 4 kts | 51° |
| 2026-05-07 03:37 | 44.88020 | -93.21311 | 829 ft | 4 kts | 92° |
| 2026-05-07 03:37 | 44.88020 | -93.21319 | 839 ft | 0 kts | 98° |
| 2026-05-07 03:37 | 44.88020 | -93.21318 | 828 ft | 0 kts | 98° |
| 2026-05-07 03:38 | 44.88020 | -93.21317 | 839 ft | 0 kts | 98° |
| 2026-05-07 03:38 | 44.88020 | -93.21315 | 837 ft | 0 kts | 98° |
| 2026-05-07 03:38 | 44.88020 | -93.21314 | 839 ft | 0 kts | 98° |
| 2026-05-07 03:38 | 44.88020 | -93.21313 | 839 ft | 0 kts | 98° |
| 2026-05-07 03:40 | 44.88018 | -93.21309 | 830 ft | 0 kts | 117° |
| 2026-05-07 03:40 | 44.87998 | -93.21280 | 838 ft | 8 kts | 135° |
| 2026-05-07 03:40 | 44.87956 | -93.21214 | 833 ft | 10 kts | 126° |
| 2026-05-07 03:41 | 44.87914 | -93.21113 | 840 ft | 15 kts | 121° |
| 2026-05-07 03:41 | 44.87857 | -93.20982 | 830 ft | 17 kts | 121° |
| 2026-05-07 03:41 | 44.87789 | -93.20827 | 830 ft | 21 kts | 121° |
| 2026-05-07 03:41 | 44.87708 | -93.20640 | 828 ft | 24 kts | 121° |
| 2026-05-07 03:42 | 44.87612 | -93.20422 | 827 ft | 28 kts | 121° |
| 2026-05-07 03:42 | 44.87513 | -93.20190 | 825 ft | 20 kts | 122° |
| 2026-05-07 03:42 | 44.87466 | -93.20097 | 836 ft | 0 kts | 150° |
| 2026-05-07 03:43 | 44.87424 | -93.20090 | 829 ft | 11 kts | 189° |
| 2026-05-07 03:43 | 44.87365 | -93.20143 | 829 ft | 6 kts | 245° |
| 2026-05-07 03:43 | 44.87372 | -93.20169 | 833 ft | 0 kts | 297° |
| 2026-05-07 03:44 | 44.87376 | -93.20179 | 832 ft | 14 kts | 298° |
| 2026-05-07 03:44 | 44.87581 | -93.20653 | 829 ft | 95 kts | 301° |
| 2026-05-07 03:44 | 44.88047 | -93.21720 | 864 ft | 156 kts | 301° |
| 2026-05-07 03:44 | 44.88604 | -93.23003 | 1649 ft | 150 kts | 301° |
| 2026-05-07 03:45 | 44.89094 | -93.24312 | 2278 ft | 158 kts | 288° |
| 2026-05-07 03:45 | 44.89166 | -93.25992 | 2488 ft | 187 kts | 265° |
| 2026-05-07 03:45 | 44.88955 | -93.27955 | 2742 ft | 217 kts | 261° |
| 2026-05-07 03:45 | 44.88660 | -93.30174 | 3046 ft | 242 kts | 260° |
| 2026-05-07 03:46 | 44.88334 | -93.32557 | 3664 ft | 251 kts | 260° |
| 2026-05-07 03:46 | 44.87980 | -93.34978 | 4474 ft | 253 kts | 257° |
| 2026-05-07 03:46 | 44.87294 | -93.37267 | 5317 ft | 255 kts | 241° |
| 2026-05-07 03:46 | 44.86316 | -93.39325 | 6136 ft | 256 kts | 237° |
| 2026-05-07 03:47 | 44.85255 | -93.41351 | 6948 ft | 258 kts | 236° |
| 2026-05-07 03:47 | 44.84172 | -93.43371 | 7736 ft | 260 kts | 236° |
| 2026-05-07 03:47 | 44.83068 | -93.45407 | 8499 ft | 262 kts | 236° |
| 2026-05-07 03:47 | 44.81955 | -93.47455 | 9271 ft | 264 kts | 236° |
| 2026-05-07 03:48 | 44.80834 | -93.49517 | 10025 ft | 266 kts | 236° |
| 2026-05-07 03:48 | 44.79682 | -93.51638 | 10461 ft | 281 kts | 236° |
| 2026-05-07 03:48 | 44.78455 | -93.53891 | 10723 ft | 299 kts | 236° |
| 2026-05-07 03:48 | 44.77155 | -93.56267 | 11118 ft | 312 kts | 236° |
| 2026-05-07 03:49 | 44.75820 | -93.58710 | 11775 ft | 316 kts | 236° |
| 2026-05-07 03:49 | 44.74471 | -93.61163 | 12429 ft | 320 kts | 236° |
| 2026-05-07 03:49 | 44.73107 | -93.63652 | 13064 ft | 323 kts | 236° |
| 2026-05-07 03:49 | 44.71726 | -93.66164 | 13741 ft | 325 kts | 236° |
| 2026-05-07 03:50 | 44.70333 | -93.68699 | 14379 ft | 329 kts | 237° |
| 2026-05-07 03:50 | 44.68930 | -93.71246 | 15030 ft | 331 kts | 236° |
| 2026-05-07 03:50 | 44.67518 | -93.73812 | 15702 ft | 334 kts | 236° |
| 2026-05-07 03:50 | 44.66094 | -93.76391 | 16331 ft | 335 kts | 237° |
| 2026-05-07 03:51 | 44.64664 | -93.78985 | 16915 ft | 338 kts | 237° |
| 2026-05-07 03:51 | 44.63217 | -93.81603 | 17503 ft | 340 kts | 237° |
| 2026-05-07 03:51 | 44.61781 | -93.84202 | 18065 ft | 342 kts | 237° |
| 2026-05-07 03:51 | 44.60319 | -93.86848 | 18611 ft | 345 kts | 237° |
| 2026-05-07 03:52 | 44.58843 | -93.89515 | 19169 ft | 347 kts | 237° |
| 2026-05-07 03:52 | 44.57353 | -93.92203 | 19708 ft | 349 kts | 237° |
| 2026-05-07 03:52 | 44.55854 | -93.94906 | 20230 ft | 351 kts | 237° |
| 2026-05-07 03:52 | 44.54351 | -93.97617 | 20713 ft | 354 kts | 237° |
| 2026-05-07 03:53 | 44.52833 | -94.00350 | 21223 ft | 356 kts | 236° |
| 2026-05-07 03:53 | 44.51305 | -94.03095 | 21715 ft | 358 kts | 236° |
| 2026-05-07 03:53 | 44.49770 | -94.05852 | 22170 ft | 360 kts | 236° |
| 2026-05-07 03:53 | 44.48223 | -94.08628 | 22609 ft | 363 kts | 236° |
| 2026-05-07 03:54 | 44.46651 | -94.11451 | 22823 ft | 372 kts | 236° |
| 2026-05-07 03:54 | 44.45043 | -94.14333 | 23094 ft | 374 kts | 236° |
| 2026-05-07 03:54 | 44.43456 | -94.17165 | 23685 ft | 367 kts | 236° |
| 2026-05-07 03:54 | 44.41893 | -94.19953 | 24420 ft | 361 kts | 236° |
| 2026-05-07 03:55 | 44.40361 | -94.22686 | 25201 ft | 354 kts | 236° |
| 2026-05-07 03:55 | 44.38857 | -94.25367 | 25982 ft | 347 kts | 236° |
| 2026-05-07 03:55 | 44.37380 | -94.28000 | 26713 ft | 343 kts | 236° |
| 2026-05-07 03:55 | 44.35891 | -94.30658 | 27018 ft | 352 kts | 236° |
| 2026-05-07 03:56 | 44.34358 | -94.33397 | 27233 ft | 363 kts | 236° |
| 2026-05-07 03:56 | 44.32779 | -94.36211 | 27421 ft | 373 kts | 236° |
| 2026-05-07 03:56 | 44.31172 | -94.39066 | 27636 ft | 383 kts | 236° |
| 2026-05-07 03:56 | 44.29512 | -94.42011 | 27990 ft | 388 kts | 236° |
| 2026-05-07 03:57 | 44.27833 | -94.44983 | 28419 ft | 392 kts | 236° |
| 2026-05-07 03:57 | 44.26141 | -94.47977 | 28878 ft | 394 kts | 236° |
| 2026-05-07 03:57 | 44.24439 | -94.50986 | 29341 ft | 396 kts | 236° |
| 2026-05-07 03:57 | 44.22723 | -94.54017 | 29766 ft | 399 kts | 236° |
| 2026-05-07 03:58 | 44.20995 | -94.57064 | 30221 ft | 401 kts | 236° |
| 2026-05-07 03:58 | 44.19256 | -94.60130 | 30588 ft | 406 kts | 236° |
| 2026-05-07 03:58 | 44.17500 | -94.63225 | 30963 ft | 409 kts | 235° |
| 2026-05-07 03:58 | 44.15726 | -94.66346 | 31343 ft | 413 kts | 235° |
| 2026-05-07 03:59 | 44.13933 | -94.69496 | 31691 ft | 416 kts | 235° |
| 2026-05-07 03:59 | 44.12125 | -94.72671 | 32006 ft | 420 kts | 235° |
| 2026-05-07 03:59 | 44.10300 | -94.75871 | 32325 ft | 424 kts | 235° |
| 2026-05-07 03:59 | 44.08459 | -94.79095 | 32648 ft | 427 kts | 235° |
| 2026-05-07 04:00 | 44.06602 | -94.82345 | 32924 ft | 431 kts | 235° |
| 2026-05-07 04:00 | 44.04725 | -94.85626 | 33210 ft | 435 kts | 235° |
| 2026-05-07 04:00 | 44.02862 | -94.88878 | 33515 ft | 437 kts | 235° |
| 2026-05-07 04:00 | 44.00959 | -94.92199 | 33801 ft | 440 kts | 235° |
| 2026-05-07 04:01 | 43.99046 | -94.95540 | 34013 ft | 444 kts | 236° |
| 2026-05-07 04:01 | 43.97781 | -94.97847 | 34284 ft | 442 kts | 237° |
| 2026-05-07 04:01 | 43.95401 | -95.02418 | 34812 ft | 440 kts | 238° |
| 2026-05-07 04:01 | 43.93631 | -95.05895 | 35161 ft | 441 kts | 238° |
| 2026-05-07 04:02 | 43.91857 | -95.09380 | 35474 ft | 442 kts | 238° |
| 2026-05-07 04:02 | 43.90074 | -95.12860 | 35763 ft | 443 kts | 238° |
| 2026-05-07 04:02 | 43.88278 | -95.16336 | 36083 ft | 444 kts | 238° |
| 2026-05-07 04:02 | 43.86469 | -95.19815 | 36430 ft | 444 kts | 238° |
| 2026-05-07 04:03 | 43.84655 | -95.23285 | 36707 ft | 446 kts | 238° |
| 2026-05-07 04:03 | 43.82831 | -95.26768 | 36982 ft | 446 kts | 238° |
| 2026-05-07 04:03 | 43.81007 | -95.30240 | 37376 ft | 445 kts | 238° |
| 2026-05-07 04:03 | 43.79193 | -95.33688 | 37781 ft | 442 kts | 238° |
| 2026-05-07 04:04 | 43.77383 | -95.37125 | 38172 ft | 441 kts | 238° |
| 2026-05-07 04:04 | 43.75577 | -95.40554 | 38452 ft | 441 kts | 238° |
| 2026-05-07 04:04 | 43.73787 | -95.43948 | 38685 ft | 443 kts | 238° |
| 2026-05-07 04:04 | 43.71971 | -95.47389 | 38938 ft | 443 kts | 238° |
| 2026-05-07 04:05 | 43.70146 | -95.50845 | 39181 ft | 444 kts | 238° |
| 2026-05-07 04:05 | 43.68323 | -95.54293 | 39400 ft | 445 kts | 238° |
| 2026-05-07 04:05 | 43.66498 | -95.57740 | 39651 ft | 445 kts | 237° |
| 2026-05-07 04:05 | 43.64665 | -95.61195 | 39869 ft | 445 kts | 237° |
| 2026-05-07 04:06 | 43.62833 | -95.64647 | 40012 ft | 447 kts | 237° |
| 2026-05-07 04:06 | 43.59149 | -95.71576 | 40038 ft | 448 kts | 237° |
| 2026-05-07 04:07 | 43.55456 | -95.78504 | 40034 ft | 449 kts | 237° |
| 2026-05-07 04:07 | 43.51750 | -95.85440 | 40026 ft | 449 kts | 237° |
| 2026-05-07 04:08 | 43.48047 | -95.92354 | 40027 ft | 448 kts | 237° |
| 2026-05-07 04:08 | 43.44339 | -95.99261 | 40025 ft | 448 kts | 237° |
| 2026-05-07 04:09 | 43.40650 | -96.06117 | 40020 ft | 449 kts | 237° |
| 2026-05-07 04:09 | 43.36930 | -96.13014 | 40018 ft | 449 kts | 237° |
| 2026-05-07 04:10 | 43.33204 | -96.19907 | 40023 ft | 449 kts | 237° |
| 2026-05-07 04:10 | 43.29586 | -96.26872 | 40028 ft | 446 kts | 243° |
| 2026-05-07 04:11 | 43.26826 | -96.34444 | 40028 ft | 442 kts | 248° |
| 2026-05-07 04:11 | 43.24724 | -96.40830 | 40027 ft | 442 kts | 249° |
| 2026-05-07 04:12 | 43.22233 | -96.48532 | 40024 ft | 442 kts | 249° |
| 2026-05-07 04:12 | 43.19320 | -96.57471 | 40023 ft | 441 kts | 249° |
| 2026-05-07 04:13 | 43.17212 | -96.63884 | 40027 ft | 441 kts | 249° |
| 2026-05-07 04:13 | 43.14686 | -96.71537 | 40028 ft | 441 kts | 249° |
| 2026-05-07 04:14 | 43.12154 | -96.79185 | 40028 ft | 441 kts | 249° |
| 2026-05-07 04:14 | 43.09633 | -96.86778 | 40028 ft | 440 kts | 249° |
| 2026-05-07 04:15 | 43.07097 | -96.94396 | 40024 ft | 440 kts | 248° |
| 2026-05-07 04:15 | 43.04552 | -97.02020 | 40025 ft | 441 kts | 248° |
| 2026-05-07 04:16 | 43.02001 | -97.09643 | 40022 ft | 441 kts | 248° |
| 2026-05-07 04:16 | 42.99441 | -97.17268 | 40031 ft | 441 kts | 248° |
| 2026-05-07 04:17 | 42.96896 | -97.24827 | 40039 ft | 441 kts | 248° |
| 2026-05-07 04:17 | 42.94327 | -97.32439 | 40033 ft | 441 kts | 248° |
| 2026-05-07 04:18 | 42.91750 | -97.40052 | 40033 ft | 441 kts | 248° |
| 2026-05-07 04:18 | 42.89170 | -97.47652 | 40038 ft | 441 kts | 248° |
| 2026-05-07 04:19 | 42.86590 | -97.55230 | 40028 ft | 440 kts | 248° |
| 2026-05-07 04:19 | 42.84005 | -97.62802 | 40029 ft | 440 kts | 248° |
| 2026-05-07 04:20 | 42.81438 | -97.70304 | 40029 ft | 440 kts | 248° |
| 2026-05-07 04:20 | 42.78844 | -97.77859 | 40029 ft | 440 kts | 248° |
| 2026-05-07 04:21 | 42.74946 | -97.89179 | 40018 ft | 440 kts | 248° |
| 2026-05-07 04:21 | 42.72344 | -97.96706 | 40017 ft | 440 kts | 248° |
| 2026-05-07 04:22 | 42.69735 | -98.04235 | 40019 ft | 439 kts | 248° |
| 2026-05-07 04:22 | 42.67124 | -98.11750 | 40015 ft | 440 kts | 248° |
| 2026-05-07 04:23 | 42.64522 | -98.19219 | 40018 ft | 440 kts | 248° |
| 2026-05-07 04:23 | 42.61900 | -98.26723 | 40017 ft | 439 kts | 248° |
| 2026-05-07 04:24 | 42.59274 | -98.34221 | 40021 ft | 439 kts | 248° |
| 2026-05-07 04:24 | 42.56643 | -98.41711 | 40024 ft | 439 kts | 248° |
| 2026-05-07 04:25 | 42.54010 | -98.49185 | 40028 ft | 439 kts | 248° |
| 2026-05-07 04:25 | 42.51371 | -98.56658 | 40027 ft | 440 kts | 248° |
| 2026-05-07 04:26 | 42.48630 | -98.64072 | 40030 ft | 442 kts | 243° |
| 2026-05-07 04:26 | 42.45431 | -98.71207 | 40028 ft | 443 kts | 242° |
| 2026-05-07 04:27 | 42.42190 | -98.78310 | 40025 ft | 444 kts | 242° |
| 2026-05-07 04:27 | 42.38956 | -98.85366 | 40028 ft | 444 kts | 242° |
| 2026-05-07 04:28 | 42.35697 | -98.92452 | 40027 ft | 444 kts | 242° |
| 2026-05-07 04:28 | 42.32429 | -98.99544 | 40028 ft | 444 kts | 242° |
| 2026-05-07 04:29 | 42.29155 | -99.06626 | 40028 ft | 444 kts | 242° |
| 2026-05-07 04:29 | 42.25883 | -99.13696 | 40029 ft | 444 kts | 242° |
| 2026-05-07 04:30 | 42.22601 | -99.20765 | 40028 ft | 444 kts | 242° |
| 2026-05-07 04:30 | 42.19341 | -99.27778 | 40026 ft | 444 kts | 242° |
| 2026-05-07 04:31 | 42.16055 | -99.34821 | 40027 ft | 445 kts | 242° |
| 2026-05-07 04:31 | 42.12759 | -99.41865 | 40029 ft | 444 kts | 242° |